Portada
METAR-TAF:

METAR-TAF

Aeroports :

Meixad, Iran

latitud: 36-16N, longitud: 059-38E, altitud: 989 m

Observació

L'informe es va fer fa 27 minuts, a les 14:30 UTC
Vent 6 kt del Sud-Est
Temperatura 8°C
Humitat 39%
Pressió 1025 hPa
Visibilitat 10 km o més
Escasses núvols a una alçada de 4000 ft
Núvols disperses a una alçada de 10000 ft
Cel ennuvolat a una alçada de 19000 ft

METAR: OIMM 181430Z 13006KT 9999 FEW040 SCT100 BKN190 08/M05 Q1025 A3027

Hora: 18:27 (14:57 UTC)

Pronòstic

L'informe es va fer fa 9 hores i 2 minuts, a les 05:55 UTC
Pronòstic vàlid del 18 a les 06 UTC al 19 a les 12 UTC
Vent 8 kt del Est
Visibilitat: 7000 m
Temporalment
l' 18 a les 12 UTC al 18 a les 15 UTC
Escasses núvols a una alçada de 3500 ft
Núvols disperses a una alçada de 10000 ft

TAF: OIMM 180555Z 1806/1912 08008KT 7000 NSC TEMPO 1812/1815 FEW035 SCT100

Observacions i pronòstics meteorològics de més de 4000 aeroports (METAR i TAF).

Les estacions disponibles són els punts grocs i vermells al mapa.

Posi el ratolí al punt desitjat per veure el nom de l'estació.

Feu clic per veure les observacions i els pronòstics meteorològics.

Per canviar el mapa: feu clic els botons verds amb una creu de color negre per apropar; al botó verd amb un guió per allunyar la imatge; o en les fletxes verdes per a mapes adjacents.


METAR-TAF: